Time;durP1;ratioP1;P1;durP2;ratioP2;P2;SDS_P1;SDS_P2;PMS_P1;PMS_P2;Temp;Humidity;BMP_temperature;BMP_pressure;BME280_temperature;BME280_humidity;BME280_pressure;Samples;Min_cycle;Max_cycle;Signal;HPM_P1;HPM_P2
2022/07/12 00:01:05;;;;;;;1999.90;999.90;;;;;;;20.41;53.25;95965.38;5048841;28;20067;-67
2022/07/12 00:03:30;;;;;;;1999.90;999.90;;;;;;;20.65;53.49;96022.03;5047383;28;20140;-67
2022/07/12 00:05:56;;;;;;;1999.90;999.90;;;;;;;20.35;53.56;95958.69;5031738;28;20087;-67
2022/07/12 00:08:22;;;;;;;1999.90;999.90;;;;;;;20.22;53.50;95947.94;5031110;28;20075;-68
2022/07/12 00:10:48;;;;;;;1999.90;999.90;;;;;;;20.48;53.54;95987.25;5030446;28;20669;-67
2022/07/12 00:13:13;;;;;;;1999.90;999.90;;;;;;;20.05;53.63;95932.03;5030134;28;20021;-67
2022/07/12 00:15:39;;;;;;;1999.90;999.90;;;;;;;20.10;53.84;95931.78;5047774;28;20024;-68
2022/07/12 00:18:04;;;;;;;1999.90;999.90;;;;;;;20.03;54.00;95928.91;5045905;28;20125;-67
2022/07/12 00:20:29;;;;;;;1999.90;999.90;;;;;;;20.09;54.20;95945.66;5030542;28;20041;-67
2022/07/12 00:22:55;;;;;;;1999.90;999.90;;;;;;;20.08;54.27;95939.47;5030628;28;20028;-67
2022/07/12 00:25:20;;;;;;;1999.90;999.90;;;;;;;20.48;54.29;96006.16;5046006;28;20532;-67
2022/07/12 00:27:46;;;;;;;1999.90;999.90;;;;;;;20.50;54.68;96009.28;5045374;28;20480;-67
2022/07/12 00:30:11;;;;;;;1999.90;999.90;;;;;;;20.36;54.73;96003.47;5049299;28;20029;-67
2022/07/12 00:32:37;;;;;;;1999.90;999.90;;;;;;;20.29;54.58;95976.28;5050464;28;20104;-68
2022/07/12 00:35:03;;;;;;;1999.90;999.90;;;;;;;20.23;54.57;95962.22;5033851;28;20029;-67
2022/07/12 00:37:28;;;;;;;1999.90;999.90;;;;;;;20.64;54.36;96027.81;5030161;28;20037;-67
2022/07/12 00:39:54;;;;;;;1999.90;999.90;;;;;;;20.45;54.28;95993.28;5042560;28;20036;-67
2022/07/12 00:42:20;;;;;;;1999.90;999.90;;;;;;;20.06;54.97;95949.03;5048961;28;20036;-67
2022/07/12 00:44:45;;;;;;;1999.90;999.90;;;;;;;20.37;54.59;95972.63;5049421;28;20032;-67
2022/07/12 00:47:27;;;;;;;1999.90;999.90;;;;;;;20.40;54.44;95974.63;5049324;28;20048;-68
2022/07/12 00:49:53;;;;;;;1999.90;999.90;;;;;;;20.35;54.30;95978.38;5047976;28;20047;-68
2022/07/12 00:52:19;;;;;;;1999.90;999.90;;;;;;;20.16;54.52;95940.41;5048397;28;20524;-67
2022/07/12 00:54:44;;;;;;;1999.90;999.90;;;;;;;20.49;54.80;96015.84;5043267;28;20017;-68
2022/07/12 00:57:09;;;;;;;1999.90;999.90;;;;;;;19.94;55.35;95941.78;5045131;28;20029;-68
2022/07/12 00:59:35;;;;;;;1999.90;999.90;;;;;;;20.01;54.91;95941.94;5029492;28;20034;-67
2022/07/12 01:02:01;;;;;;;1999.90;999.90;;;;;;;19.94;54.90;95939.06;5046537;28;20502;-67
2022/07/12 01:04:26;;;;;;;1999.90;999.90;;;;;;;19.95;55.05;95946.81;5041357;28;20032;-67
2022/07/12 01:06:51;;;;;;;1999.90;999.90;;;;;;;19.80;55.04;95934.06;5029712;28;20040;-67
2022/07/12 01:09:17;;;;;;;1999.90;999.90;;;;;;;19.89;55.91;95969.00;5030835;28;20044;-67
2022/07/12 01:11:42;;;;;;;1999.90;999.90;;;;;;;19.65;55.86;95948.28;5049023;28;20051;-67
2022/07/12 01:14:08;;;;;;;1999.90;999.90;;;;;;;19.86;56.42;96002.09;5042347;28;20104;-67
2022/07/12 01:16:34;;;;;;;1999.90;999.90;;;;;;;19.43;57.10;95981.91;5041180;28;20074;-67
2022/07/12 01:18:59;;;;;;;1999.90;999.90;;;;;;;19.03;57.41;95922.53;5046299;28;20088;-68
2022/07/12 01:21:31;;;;;;;1999.90;999.90;;;;;;;19.58;57.00;96008.19;5035160;28;20024;-67
2022/07/12 01:23:57;;;;;;;1999.90;999.90;;;;;;;19.12;57.07;95950.94;5048006;28;20024;-67
2022/07/12 01:26:22;;;;;;;1999.90;999.90;;;;;;;19.26;57.36;95987.56;5049132;28;20063;-68
2022/07/12 01:28:48;;;;;;;1999.90;999.90;;;;;;;19.36;57.04;96012.19;5048543;28;20029;-68
2022/07/12 01:31:14;;;;;;;1999.90;999.90;;;;;;;19.06;57.45;95984.66;5044485;28;20021;-68
2022/07/12 01:33:39;;;;;;;1999.90;999.90;;;;;;;19.11;57.71;95995.22;5048527;28;20021;-68
2022/07/12 01:36:05;;;;;;;1999.90;999.90;;;;;;;19.13;58.02;96009.13;5030458;28;20025;-67
2022/07/12 01:38:31;;;;;;;1999.90;999.90;;;;;;;19.08;58.15;96011.28;5029422;28;20412;-67
2022/07/12 01:40:56;;;;;;;1999.90;999.90;;;;;;;18.98;58.44;96009.03;5045766;28;20116;-68
2022/07/12 01:43:21;;;;;;;1999.90;999.90;;;;;;;18.79;59.13;95988.81;5039939;28;20474;-68
2022/07/12 01:45:47;;;;;;;1999.90;999.90;;;;;;;18.58;58.75;95975.38;5033104;28;20052;-68
2022/07/12 01:48:12;;;;;;;1999.90;999.90;;;;;;;18.26;59.30;95935.81;5049054;28;20040;-67
2022/07/12 01:50:38;;;;;;;1999.90;999.90;;;;;;;18.12;59.53;95936.91;5045882;28;20094;-67
2022/07/12 01:53:06;;;;;;;1999.90;999.90;;;;;;;18.63;59.67;96004.81;5049021;28;20021;-67
2022/07/12 01:55:31;;;;;;;1999.90;999.90;;;;;;;18.66;59.77;96014.13;5048360;28;20025;-67
2022/07/12 01:57:57;;;;;;;1999.90;999.90;;;;;;;18.45;60.12;95981.88;5039023;28;20397;-68
2022/07/12 02:00:23;;;;;;;1999.90;999.90;;;;;;;18.70;60.07;96023.94;5042594;28;20033;-67
2022/07/12 02:02:48;;;;;;;1999.90;999.90;;;;;;;18.62;59.92;95992.44;5049066;28;20029;-67
2022/07/12 02:05:14;;;;;;;1999.90;999.90;;;;;;;18.74;59.70;96004.41;5040038;28;20469;-67
2022/07/12 02:07:40;;;;;;;1999.90;999.90;;;;;;;18.48;59.77;95970.44;5029328;28;20029;-67
2022/07/12 02:10:07;;;;;;;1999.90;999.90;;;;;;;18.58;59.91;95983.47;5040965;28;20378;-67
2022/07/12 02:12:33;;;;;;;1999.90;999.90;;;;;;;18.17;59.95;95922.44;5048988;28;20048;-68
2022/07/12 02:15:00;;;;;;;1999.90;999.90;;;;;;;18.12;59.95;95942.28;5045787;28;20078;-68
2022/07/12 02:17:25;;;;;;;1999.90;999.90;;;;;;;18.37;60.24;95977.34;5048076;28;20033;-69
2022/07/12 02:19:50;;;;;;;1999.90;999.90;;;;;;;18.44;60.47;96001.84;5045040;28;20032;-68
2022/07/12 02:22:16;;;;;;;1999.90;999.90;;;;;;;18.24;60.70;95967.66;5027699;28;20045;-67
2022/07/12 02:24:41;;;;;;;1999.90;999.90;;;;;;;18.37;60.60;95993.50;5039530;28;20104;-68
2022/07/12 02:27:07;;;;;;;1999.90;999.90;;;;;;;17.97;60.65;95945.59;5052458;28;20029;-67
2022/07/12 02:29:32;;;;;;;1999.90;999.90;;;;;;;18.35;60.95;96006.53;5043973;28;20031;-67
2022/07/12 02:31:58;;;;;;;1999.90;999.90;;;;;;;18.21;61.13;95987.19;5047768;28;20033;-67
2022/07/12 02:34:23;;;;;;;1999.90;999.90;;;;;;;18.11;60.96;95974.91;5047940;28;20033;-70
2022/07/12 02:36:48;;;;;;;1999.90;999.90;;;;;;;18.15;62.04;96017.00;5050510;28;20029;-67
2022/07/12 02:39:14;;;;;;;1999.90;999.90;;;;;;;18.02;62.22;95988.47;5042465;28;20029;-67
2022/07/12 02:41:39;;;;;;;1999.90;999.90;;;;;;;17.70;62.43;95957.66;5052090;28;20033;-67
2022/07/12 02:44:05;;;;;;;1999.90;999.90;;;;;;;17.85;62.81;95986.69;5044228;28;20060;-67
2022/07/12 02:46:30;;;;;;;1999.90;999.90;;;;;;;17.55;62.57;95937.53;5051352;28;20021;-67
2022/07/12 02:48:55;;;;;;;1999.90;999.90;;;;;;;17.69;63.36;96001.84;5050787;28;20501;-67
2022/07/12 02:51:21;;;;;;;1999.90;999.90;;;;;;;17.33;63.78;95933.25;5049923;28;20104;-67
2022/07/12 02:53:46;;;;;;;1999.90;999.90;;;;;;;17.87;63.28;95999.84;5047111;28;20087;-66
2022/07/12 02:56:12;;;;;;;1999.90;999.90;;;;;;;17.87;62.88;95999.84;5031917;28;20061;-69
2022/07/12 02:58:37;;;;;;;1999.90;999.90;;;;;;;17.36;62.77;95918.41;5032301;28;20030;-68
2022/07/12 03:01:02;;;;;;;1999.90;999.90;;;;;;;17.94;62.93;96010.84;5048793;28;20560;-68
2022/07/12 03:03:28;;;;;;;1999.90;999.90;;;;;;;17.69;62.67;95972.25;5049604;28;20013;-69
2022/07/12 03:05:54;;;;;;;1999.90;999.90;;;;;;;17.70;62.68;95973.81;5032834;28;20033;-68
2022/07/12 03:08:20;;;;;;;1999.90;999.90;;;;;;;17.78;62.88;95997.22;5032276;28;20033;-68
2022/07/12 03:10:46;;;;;;;1999.90;999.90;;;;;;;17.55;63.09;95969.03;5051369;28;20044;-69
2022/07/12 03:13:11;;;;;;;1999.90;999.90;;;;;;;17.83;63.05;96020.44;5051603;28;20387;-69
2022/07/12 03:15:37;;;;;;;1999.90;999.90;;;;;;;17.51;63.04;95960.84;5048362;28;20017;-68
2022/07/12 03:18:02;;;;;;;1999.90;999.90;;;;;;;17.80;62.71;95999.56;5033195;28;20080;-68
2022/07/12 03:20:31;;;;;;;1999.90;999.90;;;;;;;17.83;62.71;96004.31;5033511;28;20033;-68
2022/07/12 03:22:57;;;;;;;1999.90;999.90;;;;;;;17.83;62.83;96010.47;5048124;28;20048;-68
2022/07/12 03:25:22;;;;;;;1999.90;999.90;;;;;;;17.78;62.60;96007.19;5048416;28;20440;-69
2022/07/12 03:27:51;;;;;;;1999.90;999.90;;;;;;;17.78;62.97;96010.66;5050878;28;20040;-69
2022/07/12 03:30:16;;;;;;;1999.90;999.90;;;;;;;17.77;62.83;96019.88;5050470;28;20025;-69
2022/07/12 03:32:42;;;;;;;1999.90;999.90;;;;;;;17.55;63.26;95988.63;5043667;28;20386;-69
2022/07/12 03:35:08;;;;;;;1999.90;999.90;;;;;;;17.73;63.04;96010.09;5042256;28;20096;-69
2022/07/12 03:37:50;;;;;;;1999.90;999.90;;;;;;;17.65;63.13;96004.38;5051345;28;20128;-69
2022/07/12 03:40:17;;;;;;;1999.90;999.90;;;;;;;17.52;63.19;95988.53;5050220;28;20037;-68
2022/07/12 03:42:44;;;;;;;1999.90;999.90;;;;;;;17.68;63.24;96003.75;5050238;28;20028;-70
2022/07/12 03:45:10;;;;;;;1999.90;999.90;;;;;;;17.68;63.32;96014.50;5042796;28;20033;-69
2022/07/12 03:47:37;;;;;;;1999.90;999.90;;;;;;;17.84;62.61;96038.16;5031268;28;20018;-69
2022/07/12 03:50:04;;;;;;;1999.90;999.90;;;;;;;17.73;63.33;96034.28;5039238;28;20381;-67
2022/07/12 03:52:31;;;;;;;1999.90;999.90;;;;;;;17.75;63.33;96007.84;5050745;28;20025;-67
2022/07/12 03:54:56;;;;;;;1999.90;999.90;;;;;;;17.86;63.52;96031.34;5050333;28;20051;-67
2022/07/12 03:57:22;;;;;;;1999.90;999.90;;;;;;;18.06;62.70;96029.75;5049354;28;20473;-70
2022/07/12 03:59:47;;;;;;;1999.90;999.90;;;;;;;17.69;63.35;96020.66;5045607;28;20029;-67
2022/07/12 04:02:13;;;;;;;1999.90;999.90;;;;;;;17.63;64.06;96035.44;5048053;28;20021;-68
2022/07/12 04:04:39;;;;;;;1999.90;999.90;;;;;;;17.67;64.02;96034.47;5048394;28;20074;-67
2022/07/12 04:07:05;;;;;;;1999.90;999.90;;;;;;;17.91;63.24;96027.66;5049739;28;20025;-69
2022/07/12 04:09:31;;;;;;;1999.90;999.90;;;;;;;18.32;62.65;96036.81;5049605;28;20062;-69
2022/07/12 04:11:56;;;;;;;1999.90;999.90;;;;;;;18.68;61.76;96034.28;5050802;28;20024;-70
2022/07/12 04:14:22;;;;;;;1999.90;999.90;;;;;;;18.53;60.76;95948.66;5048704;28;20029;-70
2022/07/12 04:16:47;;;;;;;1999.90;999.90;;;;;;;19.31;59.76;96033.97;5049759;28;20036;-67
2022/07/12 04:19:13;;;;;;;1999.90;999.90;;;;;;;19.26;59.18;95995.66;5048456;28;20036;-68
2022/07/12 04:21:39;;;;;;;1999.90;999.90;;;;;;;19.44;58.23;96007.78;5035850;28;20025;-68
2022/07/12 04:24:05;;;;;;;1999.90;999.90;;;;;;;19.94;57.58;96044.38;5035686;28;20036;-68
2022/07/12 04:26:31;;;;;;;1999.90;999.90;;;;;;;20.17;57.41;96037.34;5050450;28;20020;-68
2022/07/12 04:28:57;;;;;;;1999.90;999.90;;;;;;;20.44;56.58;96034.97;5047260;28;20485;-70
2022/07/12 04:31:22;;;;;;;1999.90;999.90;;;;;;;20.53;55.56;96043.75;5037792;28;20029;-69
2022/07/12 04:33:48;;;;;;;1999.90;999.90;;;;;;;20.42;55.12;96048.84;5046826;28;20312;-70
2022/07/12 04:36:13;;;;;;;1999.90;999.90;;;;;;;20.28;55.17;96042.25;5031003;28;20036;-69
2022/07/12 04:38:38;;;;;;;1999.90;999.90;;;;;;;20.34;55.30;96036.25;5032904;28;20021;-70
2022/07/12 04:41:04;;;;;;;1999.90;999.90;;;;;;;20.59;54.99;96030.75;5046979;28;20681;-69
2022/07/12 04:43:29;;;;;;;1999.90;999.90;;;;;;;20.82;54.72;96030.94;5049203;28;20121;-70
2022/07/12 04:45:54;;;;;;;1999.90;999.90;;;;;;;21.08;53.48;96031.22;5048851;28;20029;-69
2022/07/12 04:48:20;;;;;;;1999.90;999.90;;;;;;;21.35;52.95;96026.88;5049898;28;20107;-70
2022/07/12 04:50:45;;;;;;;1999.90;999.90;;;;;;;21.70;52.32;96029.59;5047123;28;20060;-70
2022/07/12 04:53:10;;;;;;;1999.90;999.90;;;;;;;21.85;51.46;96030.69;5032441;28;20029;-68
2022/07/12 04:55:36;;;;;;;1999.90;999.90;;;;;;;22.00;51.47;96029.06;5036940;28;20100;-69
2022/07/12 04:58:02;;;;;;;1999.90;999.90;;;;;;;22.26;50.72;96034.66;5043183;28;20088;-69
2022/07/12 05:00:27;;;;;;;1999.90;999.90;;;;;;;22.39;49.40;96043.44;5042177;28;20401;-70
2022/07/12 05:02:53;;;;;;;1999.90;999.90;;;;;;;22.42;49.50;96044.63;5048696;28;20036;-68
2022/07/12 05:05:19;;;;;;;1999.90;999.90;;;;;;;22.50;49.44;96055.25;5041973;28;20049;-67
2022/07/12 05:07:44;;;;;;;1999.90;999.90;;;;;;;21.85;49.52;96040.72;5045673;28;20040;-65
2022/07/12 05:10:09;;;;;;;1999.90;999.90;;;;;;;22.12;49.41;96045.22;5037324;28;20097;-66
2022/07/12 05:12:36;;;;;;;1999.90;999.90;;;;;;;21.70;50.12;96035.03;5032058;28;20033;-65
2022/07/12 05:15:02;;;;;;;1999.90;999.90;;;;;;;21.95;50.00;96046.38;5033304;28;20033;-65
2022/07/12 05:17:28;;;;;;;1999.90;999.90;;;;;;;22.14;49.02;96058.41;5050104;28;20104;-66
2022/07/12 05:19:53;;;;;;;1999.90;999.90;;;;;;;21.99;49.61;96065.41;5046442;28;20104;-66
2022/07/12 05:22:18;;;;;;;1999.90;999.90;;;;;;;22.04;49.26;96054.31;5045428;28;20040;-65
2022/07/12 05:24:44;;;;;;;1999.90;999.90;;;;;;;21.39;51.20;96046.66;5050161;28;20416;-66
2022/07/12 05:27:09;;;;;;;1999.90;999.90;;;;;;;21.23;51.69;96051.28;5038624;28;20040;-68
2022/07/12 05:29:35;;;;;;;1999.90;999.90;;;;;;;21.46;51.26;96059.59;5048708;28;20542;-68
2022/07/12 05:32:01;;;;;;;1999.90;999.90;;;;;;;21.45;51.49;96060.75;5045913;28;20025;-66
2022/07/12 05:34:27;;;;;;;1999.90;999.90;;;;;;;21.12;51.82;96056.44;5048653;28;20057;-64
2022/07/12 05:36:52;;;;;;;1999.90;999.90;;;;;;;20.96;53.08;96061.84;5031032;28;20072;-66
2022/07/12 05:39:17;;;;;;;1999.90;999.90;;;;;;;21.36;51.87;96055.50;5028313;28;20635;-66
2022/07/12 05:41:43;;;;;;;1999.90;999.90;;;;;;;22.00;50.44;96064.28;5028587;28;20030;-69
2022/07/12 05:44:08;;;;;;;1999.90;999.90;;;;;;;21.64;50.70;96060.78;5038142;28;20107;-71
2022/07/12 05:46:34;;;;;;;1999.90;999.90;;;;;;;20.92;52.74;96071.78;5049714;28;20080;-71
2022/07/12 05:49:00;;;;;;;1999.90;999.90;;;;;;;20.66;53.59;96057.97;5049691;28;20376;-71
2022/07/12 05:54:10;;;;;;;1999.90;999.90;;;;;;;19.60;57.40;96084.22;5050029;28;20421;-71
2022/07/12 05:56:35;;;;;;;1999.90;999.90;;;;;;;19.75;57.52;96069.25;5049128;28;20177;-71
2022/07/12 05:59:01;;;;;;;1999.90;999.90;;;;;;;20.26;56.03;96083.09;5050556;28;20130;-70
2022/07/12 06:01:26;;;;;;;1999.90;999.90;;;;;;;19.92;57.17;96087.94;5046970;28;20037;-70
2022/07/12 06:03:51;;;;;;;1999.90;999.90;;;;;;;20.07;56.65;96077.56;5033149;28;20470;-71
2022/07/12 06:06:16;;;;;;;1999.90;999.90;;;;;;;20.26;56.07;96081.19;5033336;28;20033;-70
2022/07/12 06:08:42;;;;;;;1999.90;999.90;;;;;;;20.78;54.71;96093.06;5032988;28;20025;-70
2022/07/12 06:11:07;;;;;;;1999.90;999.90;;;;;;;21.08;53.64;96096.13;5047133;28;20082;-70
2022/07/12 06:13:33;;;;;;;1999.90;999.90;;;;;;;21.15;53.43;96092.84;5050893;28;20095;-69
2022/07/12 06:15:59;;;;;;;1999.90;999.90;;;;;;;21.53;52.51;96093.03;5042317;28;20100;-71
2022/07/12 06:18:24;;;;;;;1999.90;999.90;;;;;;;21.55;51.91;96087.28;5050562;28;20465;-70
2022/07/12 06:20:50;;;;;;;1999.90;999.90;;;;;;;21.60;51.59;96081.59;5049697;28;20025;-71
2022/07/12 06:23:15;;;;;;;1999.90;999.90;;;;;;;22.02;51.33;96103.44;5050616;28;20025;-70
2022/07/12 06:25:40;;;;;;;1999.90;999.90;;;;;;;21.93;51.06;96083.09;5049864;28;20043;-71
2022/07/12 06:28:06;;;;;;;1999.90;999.90;;;;;;;21.80;51.05;96085.13;5049483;28;20037;-68
2022/07/12 06:30:32;;;;;;;1999.90;999.90;;;;;;;21.95;50.58;96083.50;5032202;28;20029;-69
2022/07/12 06:32:57;;;;;;;1999.90;999.90;;;;;;;21.68;50.89;96085.25;5042238;28;20029;-69
2022/07/12 06:35:22;;;;;;;1999.90;999.90;;;;;;;20.76;53.67;96087.97;5051399;28;20025;-69
2022/07/12 06:37:48;;;;;;;1999.90;999.90;;;;;;;20.69;53.80;96093.22;5051109;28;20041;-69
2022/07/12 06:40:16;;;;;;;1999.90;999.90;;;;;;;21.00;53.42;96092.47;5050710;28;20120;-69
2022/07/12 06:42:43;;;;;;;1999.90;999.90;;;;;;;21.41;52.16;96100.47;5052533;28;20111;-69
2022/07/12 06:45:09;;;;;;;1999.90;999.90;;;;;;;20.98;52.52;96085.84;5052206;28;20079;-69
2022/07/12 06:47:34;;;;;;;1999.90;999.90;;;;;;;20.52;53.90;96104.31;5050862;28;20029;-69
2022/07/12 06:50:00;;;;;;;1999.90;999.90;;;;;;;21.41;52.11;96086.94;5050754;28;20027;-69
2022/07/12 06:52:26;;;;;;;1999.90;999.90;;;;;;;21.24;52.14;96088.84;5052139;28;20021;-69
2022/07/12 06:54:51;;;;;;;1999.90;999.90;;;;;;;21.47;51.72;96085.53;5051920;28;20032;-69
2022/07/12 06:57:16;;;;;;;1999.90;999.90;;;;;;;21.70;50.47;96086.47;5050726;28;20028;-69
2022/07/12 06:59:42;;;;;;;1999.90;999.90;;;;;;;21.89;50.15;96085.72;5051780;28;20036;-70
2022/07/12 07:02:07;;;;;;;1999.90;999.90;;;;;;;22.09;50.54;96083.81;5050478;28;20418;-68
2022/07/12 07:04:32;;;;;;;1999.90;999.90;;;;;;;22.13;49.79;96079.31;5048849;28;20477;-70
2022/07/12 07:06:57;;;;;;;1999.90;999.90;;;;;;;20.85;52.14;96082.44;5049262;28;20032;-69
2022/07/12 07:09:23;;;;;;;1999.90;999.90;;;;;;;20.94;52.14;96087.69;5035859;28;20501;-68
2022/07/12 07:11:48;;;;;;;1999.90;999.90;;;;;;;21.67;51.23;96081.75;5030693;28;20116;-68
2022/07/12 07:14:13;;;;;;;1999.90;999.90;;;;;;;21.00;51.95;96089.00;5030618;28;20033;-69
2022/07/12 07:16:39;;;;;;;1999.90;999.90;;;;;;;21.63;50.87;96097.13;5031749;28;20061;-69
2022/07/12 07:19:05;;;;;;;1999.90;999.90;;;;;;;21.79;49.49;96086.25;5029847;28;20021;-69
2022/07/12 07:21:31;;;;;;;1999.90;999.90;;;;;;;21.48;50.32;96095.22;5051972;28;20029;-68
2022/07/12 07:23:57;;;;;;;1999.90;999.90;;;;;;;21.35;51.56;96094.53;5035276;28;20501;-69
2022/07/12 07:26:22;;;;;;;1999.90;999.90;;;;;;;21.89;49.88;96093.06;5032701;28;20159;-69
2022/07/12 07:31:38;;;;;;;1999.90;999.90;;;;;;;21.93;48.94;96091.22;5031660;28;20068;-68
2022/07/12 07:34:04;;;;;;;1999.90;999.90;;;;;;;22.04;49.05;96092.22;5030315;28;20014;-68
2022/07/12 07:36:29;;;;;;;1999.90;999.90;;;;;;;21.28;51.27;96105.91;5047518;28;20029;-69
2022/07/12 07:38:56;;;;;;;1999.90;999.90;;;;;;;21.53;50.26;96103.84;5049947;28;20538;-69
2022/07/12 07:41:21;;;;;;;1999.90;999.90;;;;;;;21.69;49.46;96101.13;5049524;28;20025;-68
2022/07/12 07:43:47;;;;;;;1999.90;999.90;;;;;;;22.13;48.77;96097.50;5038147;28;20053;-69
2022/07/12 07:46:13;;;;;;;1999.90;999.90;;;;;;;21.86;49.29;96102.69;5031192;28;20069;-69
2022/07/12 07:48:38;;;;;;;1999.90;999.90;;;;;;;21.84;49.09;96079.78;5030280;23;20132;-62
2022/07/12 07:51:03;;;;;;;1999.90;999.90;;;;;;;21.18;50.49;96105.66;5031820;28;20475;-63
2022/07/12 07:53:28;;;;;;;1999.90;999.90;;;;;;;21.45;49.74;96071.56;5009355;28;20160;-62
2022/07/12 07:55:54;;;;;;;1999.90;999.90;;;;;;;22.18;48.15;96078.25;5011101;28;20359;-62
2022/07/12 07:58:22;;;;;;;1999.90;999.90;;;;;;;22.88;47.00;96079.97;5011199;28;20018;-62
2022/07/12 08:00:50;;;;;;;1999.90;999.90;;;;;;;22.73;46.33;96087.84;5010720;28;20129;-62
2022/07/12 08:03:17;;;;;;;1999.90;999.90;;;;;;;22.87;45.53;96095.47;5010519;28;20030;-64
2022/07/12 08:05:42;;;;;;;1999.90;999.90;;;;;;;23.16;44.92;96096.00;5008745;28;20055;-63
2022/07/12 08:08:08;;;;;;;1999.90;999.90;;;;;;;22.84;46.36;96110.53;5007996;28;20536;-63
2022/07/12 08:10:33;;;;;;;1999.90;999.90;;;;;;;22.92;45.58;96081.63;5008313;28;20160;-63
2022/07/12 08:12:59;;;;;;;1999.90;999.90;;;;;;;22.48;45.81;96111.78;5010769;28;20018;-64
2022/07/12 08:15:25;;;;;;;1999.90;999.90;;;;;;;22.60;45.99;96100.00;5010634;28;20022;-64
2022/07/12 08:17:51;;;;;;;1999.90;999.90;;;;;;;23.02;44.98;96097.31;5009615;28;20041;-63
2022/07/12 08:20:16;;;;;;;1999.90;999.90;;;;;;;23.88;43.61;96089.78;5008750;28;20018;-62
2022/07/12 08:22:46;;;;;;;1999.90;999.90;;;;;;;22.22;46.63;96087.22;5010797;28;20036;-63
2022/07/12 08:25:15;;;;;;;1999.90;999.90;;;;;;;22.15;46.44;96097.91;5009392;28;20052;-63
2022/07/12 08:27:40;;;;;;;1999.90;999.90;;;;;;;22.28;45.68;96100.13;5010785;28;20030;-62
2022/07/12 08:30:07;;;;;;;1999.90;999.90;;;;;;;22.84;44.58;96110.53;5009062;28;20490;-63
2022/07/12 08:32:32;;;;;;;1999.90;999.90;;;;;;;22.14;45.68;96112.59;5010723;28;20184;-63
2022/07/12 08:35:25;;;;;;;1999.90;999.90;;;;;;;22.08;46.34;96117.47;5009373;28;20509;-63
2022/07/12 08:37:50;;;;;;;1999.90;999.90;;;;;;;21.77;46.30;96086.63;5010545;28;20022;-62
2022/07/12 08:40:16;;;;;;;1999.90;999.90;;;;;;;22.89;43.55;96112.22;5009895;28;20029;-63
2022/07/12 08:42:42;;;;;;;1999.90;999.90;;;;;;;22.80;45.27;96112.41;5010251;28;20109;-64
2022/07/12 08:45:08;;;;;;;1999.90;999.90;;;;;;;22.73;43.17;96117.69;5010119;28;20026;-64
2022/07/12 08:47:33;;;;;;;1999.90;999.90;;;;;;;22.66;42.66;96122.19;5008857;28;20042;-63
2022/07/12 08:50:20;;;;;;;1999.90;999.90;;;;;;;22.96;44.00;96112.31;5007602;28;20026;-64
2022/07/12 08:52:54;;;;;;;1999.90;999.90;;;;;;;23.33;41.87;96104.44;5025247;28;20069;-64
2022/07/12 08:55:25;;;;;;;1999.90;999.90;;;;;;;23.16;40.59;96134.78;5010212;28;20026;-64
2022/07/12 08:57:53;;;;;;;1999.90;999.90;;;;;;;23.25;41.81;96110.91;5008133;28;20029;-64
2022/07/12 09:00:19;;;;;;;1999.90;999.90;;;;;;;23.94;41.27;96119.00;5009685;28;20682;-64
2022/07/12 09:02:56;;;;;;;1999.90;999.90;;;;;;;24.17;40.35;96121.66;5008059;28;20161;-64
2022/07/12 09:05:24;;;;;;;1999.90;999.90;;;;;;;23.81;40.38;96117.66;5008755;28;20032;-64
2022/07/12 09:07:51;;;;;;;1999.90;999.90;;;;;;;23.27;42.32;96134.97;5009325;28;20036;-64
2022/07/12 09:10:17;;;;;;;1999.90;999.90;;;;;;;23.74;41.42;96122.97;5024371;28;20030;-64
2022/07/12 09:12:44;;;;;;;1999.90;999.90;;;;;;;24.34;40.01;96134.69;5009996;28;20018;-63
2022/07/12 09:15:19;;;;;;;1999.90;999.90;;;;;;;24.02;40.20;96131.53;5008909;28;20033;-64
2022/07/12 09:18:04;;;;;;;1999.90;999.90;;;;;;;24.59;39.67;96115.22;5009916;28;20543;-64
2022/07/12 09:20:32;;;;;;;1999.90;999.90;;;;;;;23.62;41.18;96132.06;5008252;28;20029;-64
2022/07/12 09:22:59;;;;;;;1999.90;999.90;;;;;;;24.22;39.96;96129.50;5009882;28;20029;-63
2022/07/12 09:25:25;;;;;;;1999.90;999.90;;;;;;;24.41;38.34;96125.09;5008573;28;20029;-63
2022/07/12 09:27:56;;;;;;;1999.90;999.90;;;;;;;24.22;38.41;96113.19;5008546;28;20026;-64
2022/07/12 09:30:23;;;;;;;1999.90;999.90;;;;;;;24.90;37.09;96109.34;5008582;28;20033;-63
2022/07/12 09:38:21;;;;;;;1999.90;999.90;;;;;;;25.24;37.05;96128.41;5009783;28;20048;-64
2022/07/12 09:40:48;;;;;;;1999.90;999.90;;;;;;;23.96;39.52;96126.81;5008074;28;20113;-64
2022/07/12 09:43:14;;;;;;;1999.90;999.90;;;;;;;24.79;38.71;96140.34;5007456;28;20082;-64
2022/07/12 09:45:40;;;;;;;1999.90;999.90;;;;;;;26.03;36.79;96137.22;5009627;28;20109;-64
2022/07/12 09:48:09;;;;;;;1999.90;999.90;;;;;;;25.20;36.69;96113.97;5008248;28;20402;-64
2022/07/12 09:50:35;;;;;;;1999.90;999.90;;;;;;;25.02;37.33;96097.41;5008200;28;20108;-64
2022/07/12 09:53:03;;;;;;;1999.90;999.90;;;;;;;24.79;37.16;96119.34;5009497;28;20101;-64
2022/07/12 09:55:29;;;;;;;1999.90;999.90;;;;;;;24.56;38.60;96146.66;5008724;28;20026;-64
2022/07/12 09:57:59;;;;;;;1999.90;999.90;;;;;;;24.59;37.68;96131.53;5007448;28;20032;-64
2022/07/12 10:00:25;;;;;;;1999.90;999.90;;;;;;;23.63;40.83;96147.25;5007624;28;20049;-66
2022/07/12 10:02:54;;;;;;;1999.90;999.90;;;;;;;23.73;40.82;96130.31;5008201;28;20054;-64
2022/07/12 10:05:24;;;;;;;1999.90;999.90;;;;;;;24.91;38.62;96148.22;5007735;28;20080;-64
2022/07/12 10:07:50;;;;;;;1999.90;999.90;;;;;;;24.23;38.63;96147.38;5006141;28;20030;-64
2022/07/12 10:10:17;;;;;;;1999.90;999.90;;;;;;;25.10;37.59;96131.75;5005964;28;20050;-64
2022/07/12 10:12:43;;;;;;;1999.90;999.90;;;;;;;24.16;39.86;96150.00;5007995;28;20032;-64
2022/07/12 10:15:15;;;;;;;1999.90;999.90;;;;;;;23.80;40.69;96141.31;5009131;28;20049;-64
2022/07/12 10:17:43;;;;;;;1999.90;999.90;;;;;;;24.55;39.31;96130.72;5009287;28;20364;-63
2022/07/12 10:20:22;;;;;;;1999.90;999.90;;;;;;;25.35;37.17;96145.63;5007733;28;20033;-64
2022/07/12 10:22:48;;;;;;;1999.90;999.90;;;;;;;25.13;38.45;96127.50;5007044;28;20030;-64
2022/07/12 10:25:29;;;;;;;1999.90;999.90;;;;;;;24.75;38.69;96153.88;5005146;28;20109;-64
2022/07/12 10:27:54;;;;;;;1999.90;999.90;;;;;;;25.67;36.57;96139.66;5008142;28;20084;-63
2022/07/12 10:30:21;;;;;;;1999.90;999.90;;;;;;;26.63;34.92;96139.53;5007350;28;20030;-64
2022/07/12 10:32:48;;;;;;;1999.90;999.90;;;;;;;27.17;33.79;96135.81;5007807;28;20025;-62
2022/07/12 10:35:17;;;;;;;1999.90;999.90;;;;;;;28.06;32.31;96117.91;5008262;28;20029;-62
2022/07/12 10:38:11;;;;;;;1999.90;999.90;;;;;;;27.70;33.34;96147.97;5007592;28;20022;-63
2022/07/12 10:40:38;;;;;;;1999.90;999.90;;;;;;;26.51;34.27;96137.13;5008417;28;20022;-63
2022/07/12 10:43:07;;;;;;;1999.90;999.90;;;;;;;27.17;33.43;96144.00;5007839;28;20041;-64
2022/07/12 10:45:43;;;;;;;1999.90;999.90;;;;;;;25.63;35.95;96149.72;5011223;28;20194;-63
2022/07/12 10:48:17;;;;;;;1999.90;999.90;;;;;;;26.55;34.83;96140.66;5012515;28;20033;-63
2022/07/12 10:53:40;;;;;;;1999.90;999.90;;;;;;;24.34;38.50;96152.94;5011234;28;20542;-63
2022/07/12 10:56:14;;;;;;;1999.90;999.90;;;;;;;25.06;37.84;96143.72;5009824;28;20777;-62
2022/07/12 10:58:42;;;;;;;1999.90;999.90;;;;;;;25.78;36.50;96128.88;5011327;28;20025;-63
2022/07/12 11:01:10;;;;;;;1999.90;999.90;;;;;;;26.08;35.90;96134.91;5010435;28;20172;-63
2022/07/12 11:04:08;;;;;;;1999.90;999.90;;;;;;;24.73;37.89;96144.53;5011079;28;20624;-62
2022/07/12 11:06:42;;;;;;;1999.90;999.90;;;;;;;24.68;38.01;96137.50;5010820;28;20045;-62